Madison, Connecticut
Current Conditions -  °F | °C
As of 11:15 AM on Monday 24 Nov 2014 (Local Time) from KSNC Reporting Station
Haze Haze  
Wind Chill: 61°   Ceiling: 100
Heat Index: 61°   Visibility: 1mi
Dew Point: 61°   Wind: 17mph
Humidity: 100%   Direction: 210°SSW
Pressure: 29.7"   Gusts: 28mph
Location:  41.28°N, 72.6°W
Report Text: KSNC 241615Z AUTO 21015G24KT 010V010 1SM BR OVC001 16/16 A2970 RMK AO2
Loading
Personal Weather Stations






























Interactive Weather Map New forecast layout! Learn more

10-Day Weather Forecast

Advertisements
Track Severe Weather on mobile